^^
Grace C. Lehan Memorial Weather Station Historical Data
Daily Summary for February 2, 2021 Units:  Both    English   Metric
Daily Weekly Monthly Yearly
  High: Low: Average:
Temperature: 76 °F /  24.4 °C 57.1 °F /  13.9 °C 65.1 °F /  18.4 °C
Dew Point: 62.2 °F /  16.8 °C 52.7 °F /  11.5 °C 56.7 °F /  13.7 °C
Humidity: 97% 47.4% 77%
Wind Speed: 11mph /  17.7km/h - 3.2mph /  5.1km/h
Wind Gust: 21mph /  33.8km/h - -
Wind- - WNW
Pressure: 29.95 in /  1014.1 hPa 29.59 in /  1001.9 hPa -
Precipitation: 1.64 in /  41.66 mm    
 
 
Tabular Data for February 2, 2021
Time Temperature Dew Point Pressure Wind Wind Speed Wind Gust Humidity Rainfall Rate (Hourly) solar
00:04 61.6 °F /  16.4 °C 60.7 °F /  15.9 °C 29.59in /  1001.9hPa ENE 0.9mph /  1.4km/h 4mph /  6.4km/h 97% 1.00in /  25.4mm 0 W/m2
00:09 61.6 °F /  16.4 °C 60.7 °F /  15.9 °C 29.59in /  1001.9hPa North 2.3mph /  3.7km/h 13mph /  20.9km/h 97% 1.10in /  27.94mm 0 W/m2
00:14 61.6 °F /  16.4 °C 60.7 °F /  15.9 °C 29.61in /  1002.6hPa NW 5.3mph /  8.5km/h 17mph /  27.4km/h 97% 1.21in /  30.73mm 0 W/m2
00:19 61.6 °F /  16.4 °C 60.7 °F /  15.9 °C 29.62in /  1002.9hPa NNW 4.1mph /  6.6km/h 17mph /  27.4km/h 97% 1.31in /  33.27mm 0 W/m2
00:24 61.5 °F /  16.4 °C 60.6 °F /  15.9 °C 29.62in /  1002.9hPa NW 6.8mph /  10.9km/h 21mph /  33.8km/h 97% 1.42in /  36.07mm 0 W/m2
00:29 61.2 °F /  16.2 °C 60.2 °F /  15.7 °C 29.61in /  1002.6hPa NNE 2.6mph /  4.2km/h 21mph /  33.8km/h 96.7% 1.50in /  38.1mm 0 W/m2
00:34 60.9 °F /  16.1 °C 59.8 °F /  15.4 °C 29.62in /  1002.9hPa NE 2.1mph /  3.4km/h 21mph /  33.8km/h 96.1% 1.50in /  38.1mm 0 W/m2
00:39 60.7 °F /  15.9 °C 59.9 °F /  15.5 °C 29.64in /  1003.6hPa NNW 3.7mph /  6km/h 14mph /  22.5km/h 97% 1.26in /  32mm 0 W/m2
00:44 60.6 °F /  15.9 °C 59.6 °F /  15.3 °C 29.65in /  1003.9hPa NNW 4.5mph /  7.2km/h 14mph /  22.5km/h 96.7% 1.31in /  33.27mm 0 W/m2
00:49 60.4 °F /  15.8 °C 59.3 °F /  15.2 °C 29.64in /  1003.6hPa North 2.5mph /  4km/h 20mph /  32.2km/h 96% 1.35in /  34.29mm 0 W/m2
00:54 60.3 °F /  15.7 °C 59.2 °F /  15.1 °C 29.64in /  1003.6hPa NE 5.4mph /  8.7km/h 20mph /  32.2km/h 96.3% 1.40in /  35.56mm 0 W/m2
00:59 60 °F /  15.6 °C 59.2 °F /  15.1 °C 29.61in /  1002.6hPa ENE 6.6mph /  10.6km/h 21mph /  33.8km/h 97% 1.42in /  36.07mm 0 W/m2
01:04 59.8 °F /  15.4 °C 58.8 °F /  14.9 °C 29.60in /  1002.3hPa NE 5.7mph /  9.2km/h 21mph /  33.8km/h 96.3% 1.42in /  36.07mm 0 W/m2
01:09 59.7 °F /  15.4 °C 58.5 °F /  14.7 °C 29.61in /  1002.6hPa NE 6.6mph /  10.6km/h 20mph /  32.2km/h 96% 0.34in /  8.64mm 0 W/m2
01:14 59.6 °F /  15.3 °C 58.5 °F /  14.7 °C 29.61in /  1002.6hPa NE 4.2mph /  6.8km/h 20mph /  32.2km/h 96.3% 0.38in /  9.65mm 0 W/m2
01:19 59.5 °F /  15.3 °C 58.7 °F /  14.8 °C 29.61in /  1002.6hPa NNW 3.6mph /  5.8km/h 20mph /  32.2km/h 97% 0.42in /  10.67mm 0 W/m2
01:24 59.4 °F /  15.2 °C 58.6 °F /  14.8 °C 29.62in /  1002.9hPa NNW 4.4mph /  7.1km/h 20mph /  32.2km/h 97% 0.45in /  11.43mm 0 W/m2
01:29 59.4 °F /  15.2 °C 58.5 °F /  14.7 °C 29.63in /  1003.3hPa SW 4.1mph /  6.6km/h 20mph /  32.2km/h 97% 0.48in /  12.19mm 0 W/m2
01:34 59.3 °F /  15.2 °C 58.3 °F /  14.6 °C 29.64in /  1003.6hPa NW 6.3mph /  10.1km/h 20mph /  32.2km/h 96.7% 0.51in /  12.95mm 0 W/m2
01:39 59.1 °F /  15.1 °C 57.9 °F /  14.4 °C 29.64in /  1003.6hPa NNW 3.6mph /  5.8km/h 16mph /  25.7km/h 96% 0.53in /  13.46mm 0 W/m2
01:44 58.9 °F /  14.9 °C 57.9 °F /  14.4 °C 29.63in /  1003.3hPa NNW 3.9mph /  6.3km/h 16mph /  25.7km/h 96.3% 0.56in /  14.22mm 0 W/m2
01:49 58.8 °F /  14.9 °C 58 °F /  14.4 °C 29.62in /  1002.9hPa NNW 3.7mph /  6km/h 16mph /  25.7km/h 97% 0.59in /  14.99mm 0 W/m2
01:54 58.7 °F /  14.8 °C 57.9 °F /  14.4 °C 29.62in /  1002.9hPa NNW 3.1mph /  5km/h 16mph /  25.7km/h 97% 0.61in /  15.49mm 0 W/m2
01:59 58.6 °F /  14.8 °C 57.6 °F /  14.2 °C 29.62in /  1002.9hPa NNE 3.4mph /  5.5km/h 18mph /  29km/h 96.5% 0.63in /  16mm 0 W/m2
02:04 58.6 °F /  14.8 °C 57.4 °F /  14.1 °C 29.61in /  1002.6hPa North 3.3mph /  5.3km/h 18mph /  29km/h 96% 0.63in /  16mm 0 W/m2
02:09 58.5 °F /  14.7 °C 57.4 °F /  14.1 °C 29.60in /  1002.3hPa NNE 2.6mph /  4.2km/h 17mph /  27.4km/h 96.2% 0.45in /  11.43mm 0 W/m2
02:14 58.4 °F /  14.7 °C 57.6 °F /  14.2 °C 29.60in /  1002.3hPa NE 2.7mph /  4.3km/h 17mph /  27.4km/h 97% 0.49in /  12.45mm 0 W/m2
02:19 58.3 °F /  14.6 °C 57.5 °F /  14.2 °C 29.60in /  1002.3hPa NNE 2.8mph /  4.5km/h 17mph /  27.4km/h 97% 0.52in /  13.21mm 0 W/m2
02:24 58.2 °F /  14.6 °C 57.4 °F /  14.1 °C 29.60in /  1002.3hPa NE 3.2mph /  5.1km/h 17mph /  27.4km/h 97% 0.54in /  13.72mm 0 W/m2
02:29 58.1 °F /  14.5 °C 57.3 °F /  14.1 °C 29.60in /  1002.3hPa ENE 3.1mph /  5km/h 17mph /  27.4km/h 97% 0.56in /  14.22mm 0 W/m2
02:34 58 °F /  14.4 °C 57 °F /  13.9 °C 29.60in /  1002.3hPa NE 3.4mph /  5.5km/h 17mph /  27.4km/h 96.5% 0.56in /  14.22mm 0 W/m2
02:39 57.8 °F /  14.3 °C 57 °F /  13.9 °C 29.59in /  1001.9hPa NE 4.3mph /  6.9km/h 16mph /  25.7km/h 96.8% 0.38in /  9.65mm 0 W/m2
02:44 57.8 °F /  14.3 °C 56.9 °F /  13.8 °C 29.60in /  1002.3hPa NE 3.4mph /  5.5km/h 16mph /  25.7km/h 97% 0.41in /  10.41mm 0 W/m2
02:49 57.7 °F /  14.3 °C 56.8 °F /  13.8 °C 29.59in /  1001.9hPa NNE 3mph /  4.8km/h 16mph /  25.7km/h 97% 0.42in /  10.67mm 0 W/m2
02:54 57.6 °F /  14.2 °C 56.8 °F /  13.8 °C 29.60in /  1002.3hPa ENE 1.8mph /  2.9km/h 16mph /  25.7km/h 97% 0.43in /  10.92mm 0 W/m2
02:59 57.6 °F /  14.2 °C 56.8 °F /  13.8 °C 29.61in /  1002.6hPa SSW 1.5mph /  2.4km/h 16mph /  25.7km/h 97% 0.44in /  11.18mm 0 W/m2
03:04 57.6 °F /  14.2 °C 56.7 °F /  13.7 °C 29.61in /  1002.6hPa NE 2.7mph /  4.3km/h 17mph /  27.4km/h 97% 0.44in /  11.18mm 0 W/m2
03:09 57.5 °F /  14.2 °C 56.7 °F /  13.7 °C 29.62in /  1002.9hPa North 2.9mph /  4.7km/h 17mph /  27.4km/h 97% 0.34in /  8.64mm 0 W/m2
03:14 57.5 °F /  14.2 °C 56.7 °F /  13.7 °C 29.61in /  1002.6hPa NW 4mph /  6.4km/h 17mph /  27.4km/h 97% 0.35in /  8.89mm 0 W/m2
03:19 57.5 °F /  14.2 °C 56.7 °F /  13.7 °C 29.61in /  1002.6hPa North 3.5mph /  5.6km/h 17mph /  27.4km/h 97% 0.36in /  9.14mm 0 W/m2
03:24 57.5 °F /  14.2 °C 56.7 °F /  13.7 °C 29.61in /  1002.6hPa NNW 3.9mph /  6.3km/h 17mph /  27.4km/h 97% 0.36in /  9.14mm 0 W/m2
03:29 57.5 °F /  14.2 °C 56.7 °F /  13.7 °C 29.61in /  1002.6hPa NNW 3.3mph /  5.3km/h 17mph /  27.4km/h 97% 0.36in /  9.14mm 0 W/m2
03:34 57.5 °F /  14.2 °C 56.6 °F /  13.7 °C 29.61in /  1002.6hPa North 2mph /  3.2km/h 17mph /  27.4km/h 97% 0.36in /  9.14mm 0 W/m2
03:39 57.4 °F /  14.1 °C 56.6 °F /  13.7 °C 29.61in /  1002.6hPa NNE 1.7mph /  2.7km/h 13mph /  20.9km/h 97% 0.20in /  5.08mm 0 W/m2
04:09 57.2 °F /  14 °C 56.4 °F /  13.6 °C 29.61in /  1002.6hPa ENE 1.6mph /  2.6km/h 12mph /  19.3km/h 97% 0.21in /  5.33mm 0 W/m2
04:14 57.2 °F /  14 °C 56.4 °F /  13.6 °C 29.60in /  1002.3hPa ENE 2mph /  3.2km/h 12mph /  19.3km/h 97% 0.21in /  5.33mm 0 W/m2
04:19 57.2 °F /  14 °C 56.4 °F /  13.6 °C 29.60in /  1002.3hPa NE 1.6mph /  2.6km/h 12mph /  19.3km/h 97% 0.21in /  5.33mm 0 W/m2
04:24 57.2 °F /  14 °C 56.3 °F /  13.5 °C 29.59in /  1001.9hPa ENE 3mph /  4.8km/h 12mph /  19.3km/h 97% 0.21in /  5.33mm 0 W/m2
04:29 57.1 °F /  13.9 °C 56.3 °F /  13.5 °C 29.59in /  1001.9hPa North 3.2mph /  5.1km/h 15mph /  24.1km/h 97% 0.21in /  5.33mm 0 W/m2
04:34 57.1 °F /  13.9 °C 56.3 °F /  13.5 °C 29.59in /  1001.9hPa NNW 3.2mph /  5.1km/h 15mph /  24.1km/h 97% 0.21in /  5.33mm 0 W/m2
04:39 57.2 °F /  14 °C 56.4 °F /  13.6 °C 29.59in /  1001.9hPa NNW 2.5mph /  4km/h 9mph /  14.5km/h 97% 0.02in /  0.51mm 0 W/m2
04:44 57.2 °F /  14 °C 56.4 °F /  13.6 °C 29.60in /  1002.3hPa North 1.3mph /  2.1km/h 9mph /  14.5km/h 97% 0.02in /  0.51mm 0 W/m2
04:49 57.2 °F /  14 °C 56.4 °F /  13.6 °C 29.60in /  1002.3hPa NNW 1.9mph /  3.1km/h 15mph /  24.1km/h 97% 0.02in /  0.51mm 0 W/m2
04:54 57.2 °F /  14 °C 56.4 °F /  13.6 °C 29.60in /  1002.3hPa NNW 1.8mph /  2.9km/h 15mph /  24.1km/h 97% 0.02in /  0.51mm 0 W/m2
04:59 57.2 °F /  14 °C 56.4 °F /  13.6 °C 29.60in /  1002.3hPa North 2.2mph /  3.5km/h 15mph /  24.1km/h 97% 0.02in /  0.51mm 0 W/m2
05:04 57.2 °F /  14 °C 56.3 °F /  13.5 °C 29.60in /  1002.3hPa NNW 1.5mph /  2.4km/h 15mph /  24.1km/h 97% 0.02in /  0.51mm 0 W/m2
05:09 57.1 °F /  13.9 °C 56.3 °F /  13.5 °C 29.61in /  1002.6hPa NNW 1.4mph /  2.3km/h 11mph /  17.7km/h 97% 0.00in /  0mm 0 W/m2
05:14 57.1 °F /  13.9 °C 56.3 °F /  13.5 °C 29.61in /  1002.6hPa NW 1.9mph /  3.1km/h 11mph /  17.7km/h 97% 0.00in /  0mm 0 W/m2
05:19 57.2 °F /  14 °C 56.3 °F /  13.5 °C 29.62in /  1002.9hPa NNW 2.2mph /  3.5km/h 11mph /  17.7km/h 97% 0.00in /  0mm 0 W/m2
05:24 57.2 °F /  14 °C 56.3 °F /  13.5 °C 29.62in /  1002.9hPa NW 3.4mph /  5.5km/h 15mph /  24.1km/h 97% 0.00in /  0mm 0 W/m2
05:29 57.2 °F /  14 °C 56.3 °F /  13.5 °C 29.62in /  1002.9hPa NW 3.3mph /  5.3km/h 15mph /  24.1km/h 97% 0.00in /  0mm 0 W/m2
05:34 57.1 °F /  13.9 °C 56.3 °F /  13.5 °C 29.63in /  1003.3hPa NNW 4mph /  6.4km/h 16mph /  25.7km/h 97% 0.00in /  0mm 0 W/m2
05:39 57.1 °F /  13.9 °C 56.3 °F /  13.5 °C 29.63in /  1003.3hPa NNW 4.6mph /  7.4km/h 16mph /  25.7km/h 97% 0.00in /  0mm 0 W/m2
05:44 57.1 °F /  13.9 °C 56.3 °F /  13.5 °C 29.64in /  1003.6hPa NNW 4.5mph /  7.2km/h 16mph /  25.7km/h 97% 0.00in /  0mm 0 W/m2
05:49 57.1 °F /  13.9 °C 56.3 °F /  13.5 °C 29.64in /  1003.6hPa NW 4.3mph /  6.9km/h 16mph /  25.7km/h 97% 0.00in /  0mm 0 W/m2
05:54 57.1 °F /  13.9 °C 56.3 °F /  13.5 °C 29.65in /  1003.9hPa NNW 3.6mph /  5.8km/h 16mph /  25.7km/h 97% 0.00in /  0mm 0 W/m2
05:59 57.1 °F /  13.9 °C 56.3 °F /  13.5 °C 29.65in /  1003.9hPa NNW 1.6mph /  2.6km/h 16mph /  25.7km/h 97% 0.00in /  0mm 0 W/m2
06:04 57.1 °F /  13.9 °C 56.3 °F /  13.5 °C 29.65in /  1003.9hPa NW 4.3mph /  6.9km/h 16mph /  25.7km/h 97% 0.00in /  0mm 0 W/m2
06:09 57.2 °F /  14 °C 56.4 °F /  13.6 °C 29.65in /  1003.9hPa NNW 3.3mph /  5.3km/h 16mph /  25.7km/h 97% 0.00in /  0mm 0 W/m2
06:14 57.2 °F /  14 °C 56.4 °F /  13.6 °C 29.65in /  1003.9hPa NW 2.7mph /  4.3km/h 16mph /  25.7km/h 97% 0.00in /  0mm 0 W/m2
06:19 57.3 °F /  14.1 °C 56.5 °F /  13.6 °C 29.65in /  1003.9hPa NW 2.7mph /  4.3km/h 16mph /  25.7km/h 97% 0.00in /  0mm 0 W/m2
06:24 57.3 °F /  14.1 °C 56.5 °F /  13.6 °C 29.65in /  1003.9hPa NNW 3.4mph /  5.5km/h 16mph /  25.7km/h 97% 0.00in /  0mm 0 W/m2
06:29 57.4 °F /  14.1 °C 56.6 °F /  13.7 °C 29.65in /  1003.9hPa NNW 3.6mph /  5.8km/h 17mph /  27.4km/h 97% 0.00in /  0mm 0 W/m2
06:34 57.4 °F /  14.1 °C 56.6 °F /  13.7 °C 29.66in /  1004.3hPa NNW 3.7mph /  6km/h 17mph /  27.4km/h 97% 0.00in /  0mm 0 W/m2
06:39 57.5 °F /  14.2 °C 56.7 °F /  13.7 °C 29.66in /  1004.3hPa NNW 3.6mph /  5.8km/h 15mph /  24.1km/h 97% 0.00in /  0mm 0 W/m2
06:44 57.5 °F /  14.2 °C 56.7 °F /  13.7 °C 29.66in /  1004.3hPa NNW 3.6mph /  5.8km/h 15mph /  24.1km/h 97% 0.00in /  0mm 7 W/m2
06:49 57.6 °F /  14.2 °C 56.7 °F /  13.7 °C 29.67in /  1004.6hPa NNW 3.8mph /  6.1km/h 15mph /  24.1km/h 97% 0.00in /  0mm 11 W/m2
06:54 57.6 °F /  14.2 °C 56.8 °F /  13.8 °C 29.67in /  1004.6hPa NW 2.4mph /  3.9km/h 15mph /  24.1km/h 97% 0.00in /  0mm 11 W/m2
06:59 57.7 °F /  14.3 °C 56.9 °F /  13.8 °C 29.67in /  1004.6hPa North 1.9mph /  3.1km/h 15mph /  24.1km/h 97% 0.00in /  0mm 7 W/m2
07:04 57.7 °F /  14.3 °C 56.9 °F /  13.8 °C 29.67in /  1004.6hPa North 3.4mph /  5.5km/h 15mph /  24.1km/h 97% 0.00in /  0mm 21 W/m2
07:09 57.8 °F /  14.3 °C 57 °F /  13.9 °C 29.67in /  1004.6hPa NNW 4mph /  6.4km/h 14mph /  22.5km/h 97% 0.00in /  0mm 33 W/m2
07:14 57.9 °F /  14.4 °C 57.1 °F /  13.9 °C 29.68in /  1005hPa NNW 1.9mph /  3.1km/h 14mph /  22.5km/h 97% 0.00in /  0mm 44 W/m2
07:19 58 °F /  14.4 °C 57.2 °F /  14 °C 29.68in /  1005hPa NW 2.9mph /  4.7km/h 14mph /  22.5km/h 97% 0.00in /  0mm 49 W/m2
07:24 58.2 °F /  14.6 °C 57.3 °F /  14.1 °C 29.68in /  1005hPa NNW 3.2mph /  5.1km/h 14mph /  22.5km/h 97% 0.00in /  0mm 65 W/m2
07:29 58.3 °F /  14.6 °C 57.5 °F /  14.2 °C 29.68in /  1005hPa NNW 3.5mph /  5.6km/h 14mph /  22.5km/h 97% 0.00in /  0mm 67 W/m2
07:34 58.4 °F /  14.7 °C 57.3 °F /  14.1 °C 29.68in /  1005hPa NNW 3.2mph /  5.1km/h 14mph /  22.5km/h 96.1% 0.00in /  0mm 70 W/m2
07:39 58.6 °F /  14.8 °C 57.4 °F /  14.1 °C 29.68in /  1005hPa NW 1.6mph /  2.6km/h 11mph /  17.7km/h 96% 0.00in /  0mm 91 W/m2
07:44 58.8 °F /  14.9 °C 57.7 °F /  14.3 °C 29.68in /  1005hPa NW 1.8mph /  2.9km/h 11mph /  17.7km/h 96% 0.00in /  0mm 97 W/m2
07:49 59 °F /  15 °C 57.9 °F /  14.4 °C 29.69in /  1005.3hPa NW 3.9mph /  6.3km/h 14mph /  22.5km/h 96% 0.00in /  0mm 125 W/m2
07:54 59.3 °F /  15.2 °C 58.1 °F /  14.5 °C 29.69in /  1005.3hPa NNW 3mph /  4.8km/h 14mph /  22.5km/h 96% 0.00in /  0mm 135 W/m2
07:59 59.6 °F /  15.3 °C 58.4 °F /  14.7 °C 29.69in /  1005.3hPa NW 2.4mph /  3.9km/h 14mph /  22.5km/h 96% 0.00in /  0mm 135 W/m2
08:00 59.8 °F /  15.4 °C 58.7 °F /  14.8 °C 29.69in /  1005.3hPa Calm   14mph /  22.5km/h 96% 0.00in /  0mm 125 W/m2
08:09 60.1 °F /  15.6 °C 58.7 °F /  14.8 °C 29.70in /  1005.6hPa NW 2.1mph /  3.4km/h 11mph /  17.7km/h 95% 0.00in /  0mm 105 W/m2
08:14 60.4 °F /  15.8 °C 58.9 °F /  14.9 °C 29.70in /  1005.6hPa NNW 3.2mph /  5.1km/h 13mph /  20.9km/h 94.8% 0.00in /  0mm 130 W/m2
08:19 60.6 °F /  15.9 °C 58.9 °F /  14.9 °C 29.70in /  1005.6hPa NNW 4.5mph /  7.2km/h 13mph /  20.9km/h 94% 0.00in /  0mm 128 W/m2
08:24 60.9 °F /  16.1 °C 58.9 °F /  14.9 °C 29.71in /  1006hPa NNW 3.6mph /  5.8km/h 13mph /  20.9km/h 93.1% 0.00in /  0mm 116 W/m2
08:29 61.2 °F /  16.2 °C 59.1 °F /  15.1 °C 29.70in /  1005.6hPa NNW 3.9mph /  6.3km/h 14mph /  22.5km/h 92.8% 0.00in /  0mm 483 W/m2
08:34 61.7 °F /  16.5 °C 59.4 °F /  15.2 °C 29.71in /  1006hPa NNW 4.8mph /  7.7km/h 14mph /  22.5km/h 92% 0.00in /  0mm 383 W/m2
08:39 62.1 °F /  16.7 °C 59.5 °F /  15.3 °C 29.71in /  1006hPa NNW 5.7mph /  9.2km/h 15mph /  24.1km/h 91% 0.00in /  0mm 160 W/m2
08:44 62.3 °F /  16.8 °C 59.2 °F /  15.1 °C 29.71in /  1006hPa NW 6mph /  9.7km/h 18mph /  29km/h 89.4% 0.00in /  0mm 153 W/m2
08:49 62.4 °F /  16.9 °C 59.1 °F /  15.1 °C 29.72in /  1006.3hPa NNW 3mph /  4.8km/h 18mph /  29km/h 89% 0.00in /  0mm 127 W/m2
08:54 62.5 °F /  16.9 °C 59.2 °F /  15.1 °C 29.72in /  1006.3hPa North 2.8mph /  4.5km/h 18mph /  29km/h 89% 0.00in /  0mm 134 W/m2
08:59 62.5 °F /  16.9 °C 58.9 °F /  14.9 °C 29.72in /  1006.3hPa NW 4.7mph /  7.6km/h 18mph /  29km/h 87.9% 0.00in /  0mm 130 W/m2
09:04 62.7 °F /  17.1 °C 58.8 °F /  14.9 °C 29.72in /  1006.3hPa NNW 4.5mph /  7.2km/h 18mph /  29km/h 87.1% 0.00in /  0mm 225 W/m2
09:09 63 °F /  17.2 °C 59 °F /  15 °C 29.73in /  1006.7hPa NNW 3.7mph /  6km/h 18mph /  29km/h 87% 0.00in /  0mm 225 W/m2
09:14 63.3 °F /  17.4 °C 59.1 °F /  15.1 °C 29.73in /  1006.7hPa NW 4.1mph /  6.6km/h 18mph /  29km/h 86% 0.00in /  0mm 415 W/m2
09:19 64 °F /  17.8 °C 59.6 °F /  15.3 °C 29.73in /  1006.7hPa NW 2.5mph /  4km/h 18mph /  29km/h 85.7% 0.00in /  0mm 415 W/m2
09:24 65.1 °F /  18.4 °C 60.8 °F /  16 °C 29.73in /  1006.7hPa NW 2.3mph /  3.7km/h 18mph /  29km/h 85.9% 0.00in /  0mm 737 W/m2
09:29 66.3 °F /  19.1 °C 61.1 °F /  16.2 °C 29.73in /  1006.7hPa NW 2.3mph /  3.7km/h 18mph /  29km/h 83.4% 0.00in /  0mm 592 W/m2
09:34 67.3 °F /  19.6 °C 60.9 °F /  16.1 °C 29.74in /  1007hPa NNE 2mph /  3.2km/h 18mph /  29km/h 80% 0.00in /  0mm 608 W/m2
09:39 68 °F /  20 °C 61.5 °F /  16.4 °C 29.74in /  1007hPa North 2.1mph /  3.4km/h 10mph /  16.1km/h 79.7% 0.00in /  0mm 640 W/m2
09:44 68.6 °F /  20.3 °C 61.2 °F /  16.2 °C 29.74in /  1007hPa NNW 0.8mph /  1.3km/h 10mph /  16.1km/h 77.2% 0.00in /  0mm 652 W/m2
09:49 69 °F /  20.6 °C 61 °F /  16.1 °C 29.74in /  1007hPa NNW 2mph /  3.2km/h 12mph /  19.3km/h 75.6% 0.00in /  0mm 696 W/m2
09:54 69.5 °F /  20.8 °C 61.8 °F /  16.6 °C 29.74in /  1007hPa North 2.6mph /  4.2km/h 12mph /  19.3km/h 76.5% 0.00in /  0mm 712 W/m2
09:59 70.2 °F /  21.2 °C 61.8 °F /  16.6 °C 29.74in /  1007hPa NW 2.3mph /  3.7km/h 12mph /  19.3km/h 74.9% 0.00in /  0mm 766 W/m2
10:04 70.6 °F /  21.4 °C 61.6 °F /  16.4 °C 29.74in /  1007hPa NNW 1.2mph /  1.9km/h 12mph /  19.3km/h 73.4% 0.00in /  0mm 689 W/m2
10:09 71 °F /  21.7 °C 62.1 °F /  16.7 °C 29.74in /  1007hPa NNW 1.6mph /  2.6km/h 11mph /  17.7km/h 73.3% 0.00in /  0mm 703 W/m2
10:14 71.4 °F /  21.9 °C 61.8 °F /  16.6 °C 29.74in /  1007hPa North 1.1mph /  1.8km/h 11mph /  17.7km/h 71.8% 0.00in /  0mm 717 W/m2
10:19 71.7 °F /  22.1 °C 62.2 °F /  16.8 °C 29.74in /  1007hPa NNW 4.3mph /  6.9km/h 14mph /  22.5km/h 72.1% 0.00in /  0mm 724 W/m2
10:24 71.8 °F /  22.1 °C 61.2 °F /  16.2 °C 29.74in /  1007hPa NNW 5.5mph /  8.9km/h 14mph /  22.5km/h 69.2% 0.00in /  0mm 749 W/m2
10:29 71.8 °F /  22.1 °C 60.6 °F /  15.9 °C 29.74in /  1007hPa NW 4.9mph /  7.9km/h 14mph /  22.5km/h 67.9% 0.00in /  0mm 752 W/m2
10:34 71.9 °F /  22.2 °C 61.7 °F /  16.5 °C 29.74in /  1007hPa NNW 3.1mph /  5km/h 14mph /  22.5km/h 70.2% 0.00in /  0mm 756 W/m2
10:39 72.2 °F /  22.3 °C 61.4 °F /  16.3 °C 29.74in /  1007hPa NW 3.2mph /  5.1km/h 11mph /  17.7km/h 68.7% 0.00in /  0mm 765 W/m2
10:44 72.6 °F /  22.6 °C 61.9 °F /  16.6 °C 29.74in /  1007hPa North 1.8mph /  2.9km/h 11mph /  17.7km/h 69% 0.00in /  0mm 779 W/m2
10:49 73.1 °F /  22.8 °C 61.8 °F /  16.6 °C 29.75in /  1007.3hPa NW 5.5mph /  8.9km/h 16mph /  25.7km/h 67.8% 0.00in /  0mm 793 W/m2
10:54 73.1 °F /  22.8 °C 60.9 °F /  16.1 °C 29.75in /  1007.3hPa NW 2.7mph /  4.3km/h 16mph /  25.7km/h 65.7% 0.00in /  0mm 812 W/m2
10:59 73.1 °F /  22.8 °C 60.5 °F /  15.8 °C 29.75in /  1007.3hPa NW 4mph /  6.4km/h 17mph /  27.4km/h 64.6% 0.00in /  0mm 803 W/m2
11:04 73.2 °F /  22.9 °C 60.7 °F /  15.9 °C 29.75in /  1007.3hPa NW 2.8mph /  4.5km/h 17mph /  27.4km/h 65% 0.00in /  0mm 812 W/m2
11:09 73.5 °F /  23.1 °C 59.6 °F /  15.3 °C 29.75in /  1007.3hPa North 2.6mph /  4.2km/h 16mph /  25.7km/h 61.8% 0.00in /  0mm 817 W/m2
11:14 73.5 °F /  23.1 °C 59.6 °F /  15.3 °C 29.75in /  1007.3hPa NNE 2mph /  3.2km/h 16mph /  25.7km/h 61.7% 0.00in /  0mm 824 W/m2
11:19 73.9 °F /  23.3 °C 60.3 °F /  15.7 °C 29.75in /  1007.3hPa NNW 1.8mph /  2.9km/h 16mph /  25.7km/h 62.7% 0.00in /  0mm 833 W/m2
11:24 74.1 °F /  23.4 °C 59.2 °F /  15.1 °C 29.75in /  1007.3hPa NW 4.2mph /  6.8km/h 16mph /  25.7km/h 59.7% 0.00in /  0mm 838 W/m2
11:29 74.4 °F /  23.6 °C 60.2 °F /  15.7 °C 29.75in /  1007.3hPa NNE 2.4mph /  3.9km/h 16mph /  25.7km/h 61.3% 0.00in /  0mm 847 W/m2
11:34 74.6 °F /  23.7 °C 59.7 °F /  15.4 °C 29.75in /  1007.3hPa NNW 3.7mph /  6km/h 16mph /  25.7km/h 59.7% 0.00in /  0mm 856 W/m2
11:39 74.7 °F /  23.7 °C 59.9 °F /  15.5 °C 29.75in /  1007.3hPa NNW 2.6mph /  4.2km/h 11mph /  17.7km/h 60% 0.00in /  0mm 881 W/m2
11:44 74.9 °F /  23.8 °C 60.4 °F /  15.8 °C 29.75in /  1007.3hPa NW 3.7mph /  6km/h 19mph /  30.6km/h 60.7% 0.00in /  0mm 960 W/m2
11:49 75.2 °F /  24 °C 61.2 °F /  16.2 °C 29.75in /  1007.3hPa NW 2.6mph /  4.2km/h 19mph /  30.6km/h 61.7% 0.00in /  0mm 944 W/m2
11:54 75.6 °F /  24.2 °C 59.4 °F /  15.2 °C 29.75in /  1007.3hPa NW 5.6mph /  9km/h 19mph /  30.6km/h 57.2% 0.00in /  0mm 921 W/m2
11:59 75.5 °F /  24.2 °C 58.4 °F /  14.7 °C 29.75in /  1007.3hPa NNW 3.2mph /  5.1km/h 19mph /  30.6km/h 55.3% 0.00in /  0mm 926 W/m2
12:00 75.4 °F /  24.1 °C 59.1 °F /  15.1 °C 29.75in /  1007.3hPa NE 1mph /  1.6km/h 19mph /  30.6km/h 57% 0.00in /  0mm 202 W/m2
12:09 74.9 °F /  23.8 °C 57.6 °F /  14.2 °C 29.75in /  1007.3hPa NNW 2.6mph /  4.2km/h 9mph /  14.5km/h 54.8% 0.00in /  0mm 69 W/m2
12:14 74.6 °F /  23.7 °C 58.1 °F /  14.5 °C 29.75in /  1007.3hPa North 2.6mph /  4.2km/h 13mph /  20.9km/h 56.4% 0.00in /  0mm 120 W/m2
12:19 74.3 °F /  23.5 °C 57.2 °F /  14 °C 29.75in /  1007.3hPa NNW 4.5mph /  7.2km/h 14mph /  22.5km/h 55.1% 0.00in /  0mm 142 W/m2
12:24 74.2 °F /  23.4 °C 58.1 °F /  14.5 °C 29.75in /  1007.3hPa NW 0.6mph /  1km/h 14mph /  22.5km/h 57.3% 0.00in /  0mm 135 W/m2
12:29 74.3 °F /  23.5 °C 58.3 °F /  14.6 °C 29.75in /  1007.3hPa NW 3mph /  4.8km/h 14mph /  22.5km/h 57.6% 0.00in /  0mm 130 W/m2
12:34 74.4 °F /  23.6 °C 57.2 °F /  14 °C 29.76in /  1007.7hPa NW 5.7mph /  9.2km/h 14mph /  22.5km/h 55% 0.00in /  0mm 796 W/m2
12:39 74.4 °F /  23.6 °C 56.3 °F /  13.5 °C 29.76in /  1007.7hPa NW 5.2mph /  8.4km/h 14mph /  22.5km/h 53.2% 0.00in /  0mm 796 W/m2
12:44 74.3 °F /  23.5 °C 55.1 °F /  12.8 °C 29.76in /  1007.7hPa NW 5.9mph /  9.5km/h 15mph /  24.1km/h 51.2% 0.00in /  0mm 234 W/m2
12:49 74.2 °F /  23.4 °C 55.9 °F /  13.3 °C 29.76in /  1007.7hPa NW 1.8mph /  2.9km/h 15mph /  24.1km/h 52.7% 0.00in /  0mm 313 W/m2
12:54 74.4 °F /  23.6 °C 55.6 °F /  13.1 °C 29.76in /  1007.7hPa NW 3.4mph /  5.5km/h 15mph /  24.1km/h 52% 0.00in /  0mm 925 W/m2
12:59 74.5 °F /  23.6 °C 55 °F /  12.8 °C 29.76in /  1007.7hPa NW 5.8mph /  9.3km/h 15mph /  24.1km/h 50.6% 0.00in /  0mm 916 W/m2
13:04 74.5 °F /  23.6 °C 54.4 °F /  12.4 °C 29.76in /  1007.7hPa NNW 3.2mph /  5.1km/h 15mph /  24.1km/h 49.4% 0.00in /  0mm 912 W/m2
13:09 74.5 °F /  23.6 °C 54.1 °F /  12.3 °C 29.76in /  1007.7hPa NW 3.1mph /  5km/h 14mph /  22.5km/h 48.9% 0.00in /  0mm 911 W/m2
13:14 74.6 °F /  23.7 °C 54.2 °F /  12.3 °C 29.76in /  1007.7hPa NW 5.8mph /  9.3km/h 14mph /  22.5km/h 49.1% 0.00in /  0mm 907 W/m2
13:19 74.6 °F /  23.7 °C 54.5 °F /  12.5 °C 29.76in /  1007.7hPa NW 3mph /  4.8km/h 14mph /  22.5km/h 49.6% 0.00in /  0mm 271 W/m2
13:24 74.5 °F /  23.6 °C 54.8 °F /  12.7 °C 29.76in /  1007.7hPa NNW 2.4mph /  3.9km/h 14mph /  22.5km/h 50.3% 0.00in /  0mm 911 W/m2
13:29 74.5 °F /  23.6 °C 55.2 °F /  12.9 °C 29.76in /  1007.7hPa WNW 6.8mph /  10.9km/h 15mph /  24.1km/h 50.9% 0.00in /  0mm 935 W/m2
13:34 74.6 °F /  23.7 °C 55.1 °F /  12.8 °C 29.76in /  1007.7hPa NW 4.6mph /  7.4km/h 15mph /  24.1km/h 50.7% 0.00in /  0mm 911 W/m2
13:39 74.7 °F /  23.7 °C 55.3 °F /  12.9 °C 29.76in /  1007.7hPa NW 3.8mph /  6.1km/h 12mph /  19.3km/h 50.9% 0.00in /  0mm 900 W/m2
13:44 74.8 °F /  23.8 °C 55.3 °F /  12.9 °C 29.77in /  1008hPa NW 5.1mph /  8.2km/h 17mph /  27.4km/h 50.7% 0.00in /  0mm 826 W/m2
13:49 74.7 °F /  23.7 °C 54.3 °F /  12.4 °C 29.77in /  1008hPa NW 7.3mph /  11.7km/h 17mph /  27.4km/h 49% 0.00in /  0mm 886 W/m2
13:54 74.5 °F /  23.6 °C 53.7 °F /  12.1 °C 29.77in /  1008hPa WNW 6mph /  9.7km/h 18mph /  29km/h 48.3% 0.00in /  0mm 888 W/m2
13:59 74.3 °F /  23.5 °C 53.5 °F /  11.9 °C 29.77in /  1008hPa NW 3.6mph /  5.8km/h 18mph /  29km/h 48.3% 0.00in /  0mm 819 W/m2
14:04 74.2 °F /  23.4 °C 54.6 °F /  12.6 °C 29.77in /  1008hPa NW 3.6mph /  5.8km/h 18mph /  29km/h 50.4% 0.00in /  0mm 891 W/m2
14:09 74.4 °F /  23.6 °C 54.4 °F /  12.4 °C 29.77in /  1008hPa NNW 4.2mph /  6.8km/h 12mph /  19.3km/h 49.6% 0.00in /  0mm 904 W/m2
14:14 74.6 °F /  23.7 °C 54.3 °F /  12.4 °C 29.77in /  1008hPa NW 3.8mph /  6.1km/h 18mph /  29km/h 49.3% 0.00in /  0mm 962 W/m2
14:19 74.8 °F /  23.8 °C 55.2 °F /  12.9 °C 29.78in /  1008.4hPa WNW 3.6mph /  5.8km/h 18mph /  29km/h 50.5% 0.00in /  0mm 962 W/m2
14:24 75.3 °F /  24.1 °C 54.5 °F /  12.5 °C 29.78in /  1008.4hPa NW 3.5mph /  5.6km/h 18mph /  29km/h 48.3% 0.00in /  0mm 874 W/m2
14:29 75.7 °F /  24.3 °C 54.6 °F /  12.6 °C 29.78in /  1008.4hPa NW 6.4mph /  10.3km/h 18mph /  29km/h 48% 0.00in /  0mm 951 W/m2
14:34 75.8 °F /  24.3 °C 55.1 °F /  12.8 °C 29.78in /  1008.4hPa NNW 2.8mph /  4.5km/h 18mph /  29km/h 48.8% 0.00in /  0mm 937 W/m2
14:39 76 °F /  24.4 °C 55.1 °F /  12.8 °C 29.78in /  1008.4hPa NW 4mph /  6.4km/h 13mph /  20.9km/h 48.3% 0.00in /  0mm 918 W/m2
14:44 75.9 °F /  24.4 °C 54.7 °F /  12.6 °C 29.78in /  1008.4hPa NW 5.9mph /  9.5km/h 15mph /  24.1km/h 47.8% 0.00in /  0mm 872 W/m2
14:49 75.3 °F /  24.1 °C 54.7 °F /  12.6 °C 29.78in /  1008.4hPa NW 7.4mph /  11.9km/h 17mph /  27.4km/h 48.7% 0.00in /  0mm 888 W/m2
14:54 74.9 °F /  23.8 °C 55 °F /  12.8 °C 29.78in /  1008.4hPa WNW 5mph /  8km/h 17mph /  27.4km/h 49.8% 0.00in /  0mm 888 W/m2
14:59 74.6 °F /  23.7 °C 54.9 °F /  12.7 °C 29.78in /  1008.4hPa WNW 7mph /  11.3km/h 17mph /  27.4km/h 50.3% 0.00in /  0mm 891 W/m2
15:04 74.8 °F /  23.8 °C 55 °F /  12.8 °C 29.78in /  1008.4hPa WNW 5.8mph /  9.3km/h 19mph /  30.6km/h 50.3% 0.00in /  0mm 921 W/m2
15:09 74.8 °F /  23.8 °C 55.2 °F /  12.9 °C 29.79in /  1008.7hPa WNW 6.1mph /  9.8km/h 19mph /  30.6km/h 50.4% 0.00in /  0mm 921 W/m2
15:14 74.7 °F /  23.7 °C 55 °F /  12.8 °C 29.79in /  1008.7hPa NW 6.1mph /  9.8km/h 19mph /  30.6km/h 50.3% 0.00in /  0mm 921 W/m2
15:19 74.5 °F /  23.6 °C 55.1 °F /  12.8 °C 29.79in /  1008.7hPa NW 4.8mph /  7.7km/h 19mph /  30.6km/h 50.8% 0.00in /  0mm 821 W/m2
15:24 74.7 °F /  23.7 °C 54.6 °F /  12.6 °C 29.79in /  1008.7hPa NW 5.8mph /  9.3km/h 19mph /  30.6km/h 49.7% 0.00in /  0mm 765 W/m2
15:29 74.9 °F /  23.8 °C 55.3 °F /  12.9 °C 29.79in /  1008.7hPa NW 2.9mph /  4.7km/h 19mph /  30.6km/h 50.5% 0.00in /  0mm 765 W/m2
15:34 75 °F /  23.9 °C 53.7 °F /  12.1 °C 29.79in /  1008.7hPa NW 7.4mph /  11.9km/h 19mph /  30.6km/h 47.4% 0.00in /  0mm 831 W/m2
15:39 74.7 °F /  23.7 °C 53.7 °F /  12.1 °C 29.80in /  1009hPa NW 3.2mph /  5.1km/h 15mph /  24.1km/h 48% 0.00in /  0mm 765 W/m2
15:44 74.6 °F /  23.7 °C 53.9 °F /  12.2 °C 29.80in /  1009hPa NW 3.3mph /  5.3km/h 15mph /  24.1km/h 48.4% 0.00in /  0mm 744 W/m2
15:49 74.9 °F /  23.8 °C 54.9 °F /  12.7 °C 29.80in /  1009hPa West 6.1mph /  9.8km/h 15mph /  24.1km/h 49.8% 0.00in /  0mm 735 W/m2
15:54 75.2 °F /  24 °C 55 °F /  12.8 °C 29.80in /  1009hPa NW 8.6mph /  13.8km/h 19mph /  30.6km/h 49.4% 0.00in /  0mm 742 W/m2
15:59 75.1 °F /  23.9 °C 55.2 °F /  12.9 °C 29.80in /  1009hPa WNW 6.9mph /  11.1km/h 19mph /  30.6km/h 50% 0.00in /  0mm 721 W/m2
16:00 75 °F /  23.9 °C 55.7 °F /  13.2 °C 29.80in /  1009hPa West 11mph /  17.7km/h 19mph /  30.6km/h 51% 0.00in /  0mm 596 W/m2
16:09 74.3 °F /  23.5 °C 55.4 °F /  13 °C 29.81in /  1009.4hPa NW 7.2mph /  11.6km/h 16mph /  25.7km/h 51.7% 0.00in /  0mm 95 W/m2
16:14 73.8 °F /  23.2 °C 54.4 °F /  12.4 °C 29.81in /  1009.4hPa NW 7.3mph /  11.7km/h 16mph /  25.7km/h 50.8% 0.00in /  0mm 58 W/m2
16:19 73.1 °F /  22.8 °C 55.1 °F /  12.8 °C 29.81in /  1009.4hPa NW 3.4mph /  5.5km/h 16mph /  25.7km/h 53.2% 0.00in /  0mm 58 W/m2
16:24 72.6 °F /  22.6 °C 54.9 °F /  12.7 °C 29.82in /  1009.7hPa NW 3.1mph /  5km/h 16mph /  25.7km/h 53.8% 0.00in /  0mm 35 W/m2
16:29 71.9 °F /  22.2 °C 54.8 °F /  12.7 °C 29.82in /  1009.7hPa WNW 3.4mph /  5.5km/h 16mph /  25.7km/h 54.8% 0.00in /  0mm 51 W/m2
16:34 71.1 °F /  21.7 °C 54.2 °F /  12.3 °C 29.82in /  1009.7hPa NW 4.9mph /  7.9km/h 16mph /  25.7km/h 55.1% 0.00in /  0mm 53 W/m2
16:39 70.6 °F /  21.4 °C 54.7 °F /  12.6 °C 29.82in /  1009.7hPa NW 2.8mph /  4.5km/h 15mph /  24.1km/h 57.1% 0.00in /  0mm 47 W/m2
16:44 70.6 °F /  21.4 °C 55.1 °F /  12.8 °C 29.82in /  1009.7hPa WNW 3.9mph /  6.3km/h 15mph /  24.1km/h 58% 0.00in /  0mm 46 W/m2
17:30 69.3 °F /  20.7 °C 56.2 °F /  13.4 °C 29.84in /  1010.4hPa WNW 4mph /  6.4km/h 14mph /  22.5km/h 63% 0.00in /  0mm 43 W/m2
18:00 68.5 °F /  20.3 °C 56.7 °F /  13.7 °C 29.85in /  1010.7hPa NW 1mph /  1.6km/h 9mph /  14.5km/h 66% 0.00in /  0mm 35 W/m2
18:30 67.7 °F /  19.8 °C 56.8 °F /  13.8 °C 29.86in /  1011.1hPa Calm   5mph /  8km/h 68% 0.00in /  0mm 19 W/m2
19:00 67.6 °F /  19.8 °C 55.8 °F /  13.2 °C 29.87in /  1011.4hPa NW 2mph /  3.2km/h 14mph /  22.5km/h 66% 0.00in /  0mm 23 W/m2
19:30 66.3 °F /  19.1 °C 55.8 °F /  13.2 °C 29.88in /  1011.7hPa NW 2mph /  3.2km/h 13mph /  20.9km/h 69% 0.00in /  0mm 2 W/m2
20:04 65 °F /  18.3 °C 55 °F /  12.8 °C 29.90in /  1012.4hPa Calm   2mph /  3.2km/h 70% 0.00in /  0mm 0 W/m2
20:09 64.9 °F /  18.3 °C 54.9 °F /  12.7 °C 29.91in /  1012.8hPa Calm   2mph /  3.2km/h 70% 0.00in /  0mm 0 W/m2
20:14 64.7 °F /  18.2 °C 54.9 °F /  12.7 °C 29.91in /  1012.8hPa NW 0.8mph /  1.3km/h 6mph /  9.7km/h 70.3% 0.00in /  0mm 0 W/m2
20:19 64.6 °F /  18.1 °C 55 °F /  12.8 °C 29.91in /  1012.8hPa WNW 1.6mph /  2.6km/h 7mph /  11.3km/h 71% 0.00in /  0mm 0 W/m2
20:24 64.5 °F /  18.1 °C 54.9 °F /  12.7 °C 29.91in /  1012.8hPa NW 1.6mph /  2.6km/h 7mph /  11.3km/h 71% 0.00in /  0mm 0 W/m2
20:29 64.5 °F /  18.1 °C 54.7 °F /  12.6 °C 29.91in /  1012.8hPa WNW 0.3mph /  0.5km/h 7mph /  11.3km/h 70.6% 0.00in /  0mm 0 W/m2
20:34 64.4 °F /  18 °C 54.8 °F /  12.7 °C 29.92in /  1013.1hPa NW 1.2mph /  1.9km/h 7mph /  11.3km/h 71% 0.00in /  0mm 0 W/m2
20:39 64.4 °F /  18 °C 54.6 °F /  12.6 °C 29.92in /  1013.1hPa NNW 0.3mph /  0.5km/h 6mph /  9.7km/h 70.6% 0.00in /  0mm 0 W/m2
20:44 64.3 °F /  17.9 °C 54.3 °F /  12.4 °C 29.92in /  1013.1hPa NNW 1.3mph /  2.1km/h 11mph /  17.7km/h 70% 0.00in /  0mm 0 W/m2
20:49 64.3 °F /  17.9 °C 54.3 °F /  12.4 °C 29.92in /  1013.1hPa NW 0.6mph /  1km/h 11mph /  17.7km/h 70% 0.00in /  0mm 0 W/m2
20:54 64.3 °F /  17.9 °C 54.2 °F /  12.3 °C 29.92in /  1013.1hPa NW 2.6mph /  4.2km/h 11mph /  17.7km/h 69.8% 0.00in /  0mm 0 W/m2
20:59 64.1 °F /  17.8 °C 54 °F /  12.2 °C 29.92in /  1013.1hPa NW 2.5mph /  4km/h 11mph /  17.7km/h 69.7% 0.00in /  0mm 0 W/m2
21:04 64.1 °F /  17.8 °C 54.1 °F /  12.3 °C 29.92in /  1013.1hPa NNW 1.4mph /  2.3km/h 11mph /  17.7km/h 70% 0.00in /  0mm 0 W/m2
21:09 64 °F /  17.8 °C 54 °F /  12.2 °C 29.92in /  1013.1hPa NNW 2.4mph /  3.9km/h 13mph /  20.9km/h 70% 0.00in /  0mm 0 W/m2
21:14 63.9 °F /  17.7 °C 53.9 °F /  12.2 °C 29.92in /  1013.1hPa NW 2mph /  3.2km/h 13mph /  20.9km/h 70% 0.00in /  0mm 0 W/m2
21:19 63.7 °F /  17.6 °C 53.8 °F /  12.1 °C 29.92in /  1013.1hPa NW 2.1mph /  3.4km/h 13mph /  20.9km/h 70% 0.00in /  0mm 0 W/m2
21:24 63.6 °F /  17.6 °C 53.8 °F /  12.1 °C 29.92in /  1013.1hPa NW 3mph /  4.8km/h 13mph /  20.9km/h 70.3% 0.00in /  0mm 0 W/m2
21:29 63.5 °F /  17.5 °C 53.8 °F /  12.1 °C 29.92in /  1013.1hPa NW 2.6mph /  4.2km/h 15mph /  24.1km/h 70.5% 0.00in /  0mm 0 W/m2
21:34 63.5 °F /  17.5 °C 53.7 °F /  12.1 °C 29.92in /  1013.1hPa NW 2.4mph /  3.9km/h 15mph /  24.1km/h 70.3% 0.00in /  0mm 0 W/m2
21:39 63.5 °F /  17.5 °C 53.9 °F /  12.2 °C 29.92in /  1013.1hPa NW 2mph /  3.2km/h 9mph /  14.5km/h 70.9% 0.00in /  0mm 0 W/m2
21:44 63.6 °F /  17.6 °C 54 °F /  12.2 °C 29.92in /  1013.1hPa NW 1mph /  1.6km/h 9mph /  14.5km/h 71% 0.00in /  0mm 0 W/m2
21:49 63.6 °F /  17.6 °C 54 °F /  12.2 °C 29.92in /  1013.1hPa WNW 4.2mph /  6.8km/h 14mph /  22.5km/h 71% 0.00in /  0mm 0 W/m2
21:54 63.6 °F /  17.6 °C 54 °F /  12.2 °C 29.92in /  1013.1hPa WNW 3.3mph /  5.3km/h 14mph /  22.5km/h 71% 0.00in /  0mm 0 W/m2
21:59 63.5 °F /  17.5 °C 53.8 °F /  12.1 °C 29.92in /  1013.1hPa NW 2.5mph /  4km/h 14mph /  22.5km/h 70.5% 0.00in /  0mm 0 W/m2
22:04 63.5 °F /  17.5 °C 53.7 °F /  12.1 °C 29.92in /  1013.1hPa NW 2.1mph /  3.4km/h 14mph /  22.5km/h 70.5% 0.00in /  0mm 0 W/m2
22:09 63.5 °F /  17.5 °C 53.9 °F /  12.2 °C 29.92in /  1013.1hPa NW 4.2mph /  6.8km/h 12mph /  19.3km/h 71% 0.00in /  0mm 0 W/m2
22:14 63.4 °F /  17.4 °C 53.4 °F /  11.9 °C 29.92in /  1013.1hPa NW 3.6mph /  5.8km/h 15mph /  24.1km/h 70% 0.00in /  0mm 0 W/m2
22:19 63.2 °F /  17.3 °C 53.6 °F /  12 °C 29.92in /  1013.1hPa NW 5.6mph /  9km/h 15mph /  24.1km/h 70.8% 0.00in /  0mm 0 W/m2
22:24 63.1 °F /  17.3 °C 53.5 °F /  11.9 °C 29.92in /  1013.1hPa NNW 2.8mph /  4.5km/h 15mph /  24.1km/h 71% 0.00in /  0mm 0 W/m2
22:29 62.9 °F /  17.2 °C 53.4 °F /  11.9 °C 29.92in /  1013.1hPa NW 1.8mph /  2.9km/h 15mph /  24.1km/h 71% 0.00in /  0mm 0 W/m2
22:34 62.8 °F /  17.1 °C 53.4 °F /  11.9 °C 29.93in /  1013.4hPa NW 2.6mph /  4.2km/h 15mph /  24.1km/h 71.6% 0.00in /  0mm 0 W/m2
22:39 62.5 °F /  16.9 °C 53.4 °F /  11.9 °C 29.93in /  1013.4hPa NW 2.6mph /  4.2km/h 14mph /  22.5km/h 71.9% 0.00in /  0mm 0 W/m2
22:44 62.3 °F /  16.8 °C 53.2 °F /  11.8 °C 29.93in /  1013.4hPa NNW 1.3mph /  2.1km/h 14mph /  22.5km/h 72% 0.00in /  0mm 0 W/m2
22:49 62.2 °F /  16.8 °C 53.2 °F /  11.8 °C 29.93in /  1013.4hPa NNW 2.4mph /  3.9km/h 14mph /  22.5km/h 72.3% 0.00in /  0mm 0 W/m2
22:54 62.1 °F /  16.7 °C 53.2 °F /  11.8 °C 29.94in /  1013.8hPa NW 0.4mph /  0.6km/h 14mph /  22.5km/h 72.5% 0.00in /  0mm 0 W/m2
22:59 62 °F /  16.7 °C 52.9 °F /  11.6 °C 29.94in /  1013.8hPa Calm   14mph /  22.5km/h 72.1% 0.00in /  0mm 0 W/m2
23:04 61.9 °F /  16.6 °C 53.1 °F /  11.7 °C 29.94in /  1013.8hPa NNW 0.6mph /  1km/h 14mph /  22.5km/h 73% 0.00in /  0mm 0 W/m2
23:09 61.8 °F /  16.6 °C 53 °F /  11.7 °C 29.94in /  1013.8hPa NW 1.4mph /  2.3km/h 7mph /  11.3km/h 73% 0.00in /  0mm 0 W/m2
23:14 61.6 °F /  16.4 °C 53.2 °F /  11.8 °C 29.94in /  1013.8hPa NW 0.8mph /  1.3km/h 7mph /  11.3km/h 73.8% 0.00in /  0mm 0 W/m2
23:19 61.5 °F /  16.4 °C 53.1 °F /  11.7 °C 29.94in /  1013.8hPa NW 0.4mph /  0.6km/h 7mph /  11.3km/h 74% 0.00in /  0mm 0 W/m2
23:24 61.3 °F /  16.3 °C 53 °F /  11.7 °C 29.94in /  1013.8hPa NW 0.5mph /  0.8km/h 7mph /  11.3km/h 74% 0.00in /  0mm 0 W/m2
23:29 61.2 °F /  16.2 °C 53.1 °F /  11.7 °C 29.94in /  1013.8hPa NNW 0.8mph /  1.3km/h 7mph /  11.3km/h 74.8% 0.00in /  0mm 0 W/m2
23:34 61.1 °F /  16.2 °C 53.1 °F /  11.7 °C 29.94in /  1013.8hPa NW 0.7mph /  1.1km/h 7mph /  11.3km/h 75% 0.00in /  0mm 0 W/m2
23:39 60.9 °F /  16.1 °C 53 °F /  11.7 °C 29.95in /  1014.1hPa WNW 0.8mph /  1.3km/h 7mph /  11.3km/h 75% 0.00in /  0mm 0 W/m2
23:44 60.8 °F /  16 °C 52.9 °F /  11.6 °C 29.95in /  1014.1hPa WNW 0.2mph /  0.3km/h 7mph /  11.3km/h 75% 0.00in /  0mm 0 W/m2
23:49 60.7 °F /  15.9 °C 52.8 °F /  11.6 °C 29.95in /  1014.1hPa WNW 0.1mph /  0.2km/h 7mph /  11.3km/h 75% 0.00in /  0mm 0 W/m2
23:54 60.6 °F /  15.9 °C 52.7 °F /  11.5 °C 29.95in /  1014.1hPa Calm   7mph /  11.3km/h 75% 0.00in /  0mm 0 W/m2
23:59 60.5 °F /  15.8 °C 52.8 °F /  11.6 °C 29.95in /  1014.1hPa Calm   7mph /  11.3km/h 75.8% 0.00in /  0mm 0 W/m2
Hartford County Weather
Compliments of Weather Underground - 4 mb